sensor_id;sensor_type;location;lat;lon;timestamp;temperature;humidity
20070;DHT22;10195;50.868;4.382;2023-07-29T00:01:27;20.60;99.90
20070;DHT22;10195;50.868;4.382;2023-07-29T00:03:53;20.60;99.90
20070;DHT22;10195;50.868;4.382;2023-07-29T00:06:18;20.60;99.90
20070;DHT22;10195;50.868;4.382;2023-07-29T00:08:44;20.60;99.90
20070;DHT22;10195;50.868;4.382;2023-07-29T00:11:10;20.60;99.90
20070;DHT22;10195;50.868;4.382;2023-07-29T00:13:35;20.40;99.90
20070;DHT22;10195;50.868;4.382;2023-07-29T00:16:01;20.30;99.90
20070;DHT22;10195;50.868;4.382;2023-07-29T00:18:26;20.30;99.90
20070;DHT22;10195;50.868;4.382;2023-07-29T00:20:53;20.20;99.90
20070;DHT22;10195;50.868;4.382;2023-07-29T00:23:18;20.10;99.90
20070;DHT22;10195;50.868;4.382;2023-07-29T00:25:44;20.00;99.90
20070;DHT22;10195;50.868;4.382;2023-07-29T00:28:11;20.00;99.90
20070;DHT22;10195;50.868;4.382;2023-07-29T00:30:37;20.00;99.90
20070;DHT22;10195;50.868;4.382;2023-07-29T00:33:03;20.00;99.90
20070;DHT22;10195;50.868;4.382;2023-07-29T00:35:28;20.00;99.90
20070;DHT22;10195;50.868;4.382;2023-07-29T00:37:54;19.90;99.90
20070;DHT22;10195;50.868;4.382;2023-07-29T00:40:21;19.90;99.90
20070;DHT22;10195;50.868;4.382;2023-07-29T00:42:47;19.80;99.90
20070;DHT22;10195;50.868;4.382;2023-07-29T00:45:13;19.70;99.90
20070;DHT22;10195;50.868;4.382;2023-07-29T00:47:39;19.70;99.90
20070;DHT22;10195;50.868;4.382;2023-07-29T00:50:06;19.60;99.90
20070;DHT22;10195;50.868;4.382;2023-07-29T00:52:32;19.60;99.90
20070;DHT22;10195;50.868;4.382;2023-07-29T00:54:58;19.40;99.90
20070;DHT22;10195;50.868;4.382;2023-07-29T00:57:24;19.40;99.90
20070;DHT22;10195;50.868;4.382;2023-07-29T00:59:51;19.40;99.90
20070;DHT22;10195;50.868;4.382;2023-07-29T01:02:17;19.40;99.90
20070;DHT22;10195;50.868;4.382;2023-07-29T01:04:42;19.40;99.90
20070;DHT22;10195;50.868;4.382;2023-07-29T01:07:19;19.20;99.90
20070;DHT22;10195;50.868;4.382;2023-07-29T01:10:19;19.10;99.90
20070;DHT22;10195;50.868;4.382;2023-07-29T01:15:53;19.30;99.90
20070;DHT22;10195;50.868;4.382;2023-07-29T01:18:26;19.20;99.90
20070;DHT22;10195;50.868;4.382;2023-07-29T01:20:54;19.20;99.90
20070;DHT22;10195;50.868;4.382;2023-07-29T01:23:25;19.10;99.90
20070;DHT22;10195;50.868;4.382;2023-07-29T01:25:50;19.10;99.90
20070;DHT22;10195;50.868;4.382;2023-07-29T01:28:16;19.20;99.90
20070;DHT22;10195;50.868;4.382;2023-07-29T01:30:43;19.20;99.90
20070;DHT22;10195;50.868;4.382;2023-07-29T01:33:11;19.30;99.90
20070;DHT22;10195;50.868;4.382;2023-07-29T01:35:51;19.30;99.90
20070;DHT22;10195;50.868;4.382;2023-07-29T01:38:44;19.40;99.90
20070;DHT22;10195;50.868;4.382;2023-07-29T01:41:09;19.30;99.90
20070;DHT22;10195;50.868;4.382;2023-07-29T01:43:36;19.30;99.90
20070;DHT22;10195;50.868;4.382;2023-07-29T01:46:09;19.20;99.90
20070;DHT22;10195;50.868;4.382;2023-07-29T01:48:36;19.20;99.90
20070;DHT22;10195;50.868;4.382;2023-07-29T01:51:01;19.20;99.90
20070;DHT22;10195;50.868;4.382;2023-07-29T01:53:27;19.20;99.90
20070;DHT22;10195;50.868;4.382;2023-07-29T01:55:53;19.20;99.90
20070;DHT22;10195;50.868;4.382;2023-07-29T01:58:18;19.20;99.90
20070;DHT22;10195;50.868;4.382;2023-07-29T02:00:44;19.20;99.90
20070;DHT22;10195;50.868;4.382;2023-07-29T02:03:10;19.30;99.90
20070;DHT22;10195;50.868;4.382;2023-07-29T02:05:35;19.20;99.90
20070;DHT22;10195;50.868;4.382;2023-07-29T02:08:01;19.10;99.90
20070;DHT22;10195;50.868;4.382;2023-07-29T02:10:27;19.10;99.90
20070;DHT22;10195;50.868;4.382;2023-07-29T02:12:52;19.10;99.90
20070;DHT22;10195;50.868;4.382;2023-07-29T02:15:18;19.00;99.90
20070;DHT22;10195;50.868;4.382;2023-07-29T02:17:44;19.00;99.90
20070;DHT22;10195;50.868;4.382;2023-07-29T02:20:10;19.00;99.90
20070;DHT22;10195;50.868;4.382;2023-07-29T02:22:36;19.00;99.90
20070;DHT22;10195;50.868;4.382;2023-07-29T02:25:02;19.00;99.90
20070;DHT22;10195;50.868;4.382;2023-07-29T02:27:28;19.00;99.90
20070;DHT22;10195;50.868;4.382;2023-07-29T02:29:54;18.90;99.90
20070;DHT22;10195;50.868;4.382;2023-07-29T02:32:20;19.00;99.90
20070;DHT22;10195;50.868;4.382;2023-07-29T02:34:46;19.00;99.90
20070;DHT22;10195;50.868;4.382;2023-07-29T02:37:11;18.90;99.90
20070;DHT22;10195;50.868;4.382;2023-07-29T02:39:38;18.90;99.90
20070;DHT22;10195;50.868;4.382;2023-07-29T02:42:04;18.80;99.90
20070;DHT22;10195;50.868;4.382;2023-07-29T02:44:29;18.80;99.90
20070;DHT22;10195;50.868;4.382;2023-07-29T02:46:55;18.80;99.90
20070;DHT22;10195;50.868;4.382;2023-07-29T02:49:22;18.70;99.90
20070;DHT22;10195;50.868;4.382;2023-07-29T02:51:48;18.70;99.90
20070;DHT22;10195;50.868;4.382;2023-07-29T02:54:14;18.70;99.90
20070;DHT22;10195;50.868;4.382;2023-07-29T02:56:39;18.80;99.90
20070;DHT22;10195;50.868;4.382;2023-07-29T02:59:05;18.80;99.90
20070;DHT22;10195;50.868;4.382;2023-07-29T03:01:31;18.70;99.90
20070;DHT22;10195;50.868;4.382;2023-07-29T03:03:56;18.80;99.90
20070;DHT22;10195;50.868;4.382;2023-07-29T03:06:22;18.90;99.90
20070;DHT22;10195;50.868;4.382;2023-07-29T03:08:48;18.90;99.90
20070;DHT22;10195;50.868;4.382;2023-07-29T03:11:15;18.90;99.90
20070;DHT22;10195;50.868;4.382;2023-07-29T03:13:41;18.90;99.90
20070;DHT22;10195;50.868;4.382;2023-07-29T03:16:09;18.90;99.90
20070;DHT22;10195;50.868;4.382;2023-07-29T03:18:35;18.80;99.90
20070;DHT22;10195;50.868;4.382;2023-07-29T03:21:01;18.80;99.90
20070;DHT22;10195;50.868;4.382;2023-07-29T03:23:31;18.70;99.90
20070;DHT22;10195;50.868;4.382;2023-07-29T03:25:58;18.70;99.90
20070;DHT22;10195;50.868;4.382;2023-07-29T03:28:25;18.60;99.90
20070;DHT22;10195;50.868;4.382;2023-07-29T03:30:56;18.70;99.90
20070;DHT22;10195;50.868;4.382;2023-07-29T03:33:21;18.70;99.90
20070;DHT22;10195;50.868;4.382;2023-07-29T03:35:47;18.70;99.90
20070;DHT22;10195;50.868;4.382;2023-07-29T03:38:13;18.70;99.90
20070;DHT22;10195;50.868;4.382;2023-07-29T03:40:39;18.80;99.90
20070;DHT22;10195;50.868;4.382;2023-07-29T03:43:05;18.80;99.90
20070;DHT22;10195;50.868;4.382;2023-07-29T03:45:31;18.70;99.90
20070;DHT22;10195;50.868;4.382;2023-07-29T03:47:57;18.70;99.90
20070;DHT22;10195;50.868;4.382;2023-07-29T03:50:23;18.80;99.90
20070;DHT22;10195;50.868;4.382;2023-07-29T03:52:50;18.70;99.90
20070;DHT22;10195;50.868;4.382;2023-07-29T03:55:15;18.70;99.90
20070;DHT22;10195;50.868;4.382;2023-07-29T03:57:41;18.70;99.90
20070;DHT22;10195;50.868;4.382;2023-07-29T04:00:07;18.80;99.90
20070;DHT22;10195;50.868;4.382;2023-07-29T04:02:32;18.80;99.90
20070;DHT22;10195;50.868;4.382;2023-07-29T04:04:58;18.80;99.90
20070;DHT22;10195;50.868;4.382;2023-07-29T04:07:24;18.70;99.90
20070;DHT22;10195;50.868;4.382;2023-07-29T04:09:49;18.60;99.90
20070;DHT22;10195;50.868;4.382;2023-07-29T04:12:15;18.50;99.90
20070;DHT22;10195;50.868;4.382;2023-07-29T04:14:41;18.50;99.90
20070;DHT22;10195;50.868;4.382;2023-07-29T04:17:07;18.50;99.90
20070;DHT22;10195;50.868;4.382;2023-07-29T04:19:33;18.50;99.90
20070;DHT22;10195;50.868;4.382;2023-07-29T04:21:59;18.50;99.90
20070;DHT22;10195;50.868;4.382;2023-07-29T04:24:24;18.40;99.90
20070;DHT22;10195;50.868;4.382;2023-07-29T04:26:50;18.50;99.90
20070;DHT22;10195;50.868;4.382;2023-07-29T04:29:16;18.50;99.90
20070;DHT22;10195;50.868;4.382;2023-07-29T04:31:42;18.50;99.90
20070;DHT22;10195;50.868;4.382;2023-07-29T04:34:08;18.50;99.90
20070;DHT22;10195;50.868;4.382;2023-07-29T04:36:34;18.60;99.90
20070;DHT22;10195;50.868;4.382;2023-07-29T04:39:00;18.60;99.90
20070;DHT22;10195;50.868;4.382;2023-07-29T04:41:26;18.70;99.90
20070;DHT22;10195;50.868;4.382;2023-07-29T04:43:51;18.70;99.90
20070;DHT22;10195;50.868;4.382;2023-07-29T04:46:17;18.70;99.90
20070;DHT22;10195;50.868;4.382;2023-07-29T04:48:43;18.60;99.90
20070;DHT22;10195;50.868;4.382;2023-07-29T04:51:09;18.60;99.90
20070;DHT22;10195;50.868;4.382;2023-07-29T04:53:34;18.60;99.90
20070;DHT22;10195;50.868;4.382;2023-07-29T04:56:02;18.60;99.90
20070;DHT22;10195;50.868;4.382;2023-07-29T04:58:28;18.60;99.90
20070;DHT22;10195;50.868;4.382;2023-07-29T05:00:55;18.80;99.90
20070;DHT22;10195;50.868;4.382;2023-07-29T05:03:21;18.70;99.90
20070;DHT22;10195;50.868;4.382;2023-07-29T05:05:47;18.70;99.90
20070;DHT22;10195;50.868;4.382;2023-07-29T05:08:12;18.70;99.90
20070;DHT22;10195;50.868;4.382;2023-07-29T05:10:38;18.70;99.90
20070;DHT22;10195;50.868;4.382;2023-07-29T05:13:04;18.80;99.90
20070;DHT22;10195;50.868;4.382;2023-07-29T05:15:29;18.80;99.90
20070;DHT22;10195;50.868;4.382;2023-07-29T05:17:55;18.80;99.90
20070;DHT22;10195;50.868;4.382;2023-07-29T05:20:21;18.90;99.90
20070;DHT22;10195;50.868;4.382;2023-07-29T05:22:47;19.10;99.90
20070;DHT22;10195;50.868;4.382;2023-07-29T05:25:12;19.30;99.90
20070;DHT22;10195;50.868;4.382;2023-07-29T05:27:38;19.40;99.90
20070;DHT22;10195;50.868;4.382;2023-07-29T05:30:04;19.20;99.90
20070;DHT22;10195;50.868;4.382;2023-07-29T05:32:30;19.30;99.90
20070;DHT22;10195;50.868;4.382;2023-07-29T05:34:55;19.30;99.90
20070;DHT22;10195;50.868;4.382;2023-07-29T05:37:21;19.40;99.90
20070;DHT22;10195;50.868;4.382;2023-07-29T05:39:46;19.40;99.90
20070;DHT22;10195;50.868;4.382;2023-07-29T05:42:12;19.40;99.90
20070;DHT22;10195;50.868;4.382;2023-07-29T05:44:38;19.40;99.90
20070;DHT22;10195;50.868;4.382;2023-07-29T05:47:03;19.50;99.90
20070;DHT22;10195;50.868;4.382;2023-07-29T05:49:29;19.80;99.90
20070;DHT22;10195;50.868;4.382;2023-07-29T05:51:55;20.50;99.90
20070;DHT22;10195;50.868;4.382;2023-07-29T05:54:21;20.90;99.90
20070;DHT22;10195;50.868;4.382;2023-07-29T05:56:47;21.10;99.90
20070;DHT22;10195;50.868;4.382;2023-07-29T05:59:13;21.20;99.90
20070;DHT22;10195;50.868;4.382;2023-07-29T06:01:38;21.20;99.90
20070;DHT22;10195;50.868;4.382;2023-07-29T06:04:04;21.20;99.90
20070;DHT22;10195;50.868;4.382;2023-07-29T06:06:30;21.00;99.90
20070;DHT22;10195;50.868;4.382;2023-07-29T06:08:55;20.90;99.90
20070;DHT22;10195;50.868;4.382;2023-07-29T06:11:21;21.40;99.90
20070;DHT22;10195;50.868;4.382;2023-07-29T06:13:47;21.50;99.90
20070;DHT22;10195;50.868;4.382;2023-07-29T06:16:13;21.80;99.90
20070;DHT22;10195;50.868;4.382;2023-07-29T06:18:39;22.20;99.90
20070;DHT22;10195;50.868;4.382;2023-07-29T06:21:04;22.80;99.90
20070;DHT22;10195;50.868;4.382;2023-07-29T06:23:33;23.70;99.90
20070;DHT22;10195;50.868;4.382;2023-07-29T06:25:59;24.20;99.90
20070;DHT22;10195;50.868;4.382;2023-07-29T06:28:26;24.20;99.90
20070;DHT22;10195;50.868;4.382;2023-07-29T06:30:52;24.40;99.90
20070;DHT22;10195;50.868;4.382;2023-07-29T06:33:18;24.30;99.90
20070;DHT22;10195;50.868;4.382;2023-07-29T06:35:43;23.90;99.90
20070;DHT22;10195;50.868;4.382;2023-07-29T06:38:09;23.80;99.90
20070;DHT22;10195;50.868;4.382;2023-07-29T06:40:35;23.60;99.90
20070;DHT22;10195;50.868;4.382;2023-07-29T06:43:00;23.50;99.90
20070;DHT22;10195;50.868;4.382;2023-07-29T06:45:26;22.90;99.90
20070;DHT22;10195;50.868;4.382;2023-07-29T06:47:52;22.60;99.90
20070;DHT22;10195;50.868;4.382;2023-07-29T06:50:18;23.00;99.90
20070;DHT22;10195;50.868;4.382;2023-07-29T06:52:43;23.00;99.90
20070;DHT22;10195;50.868;4.382;2023-07-29T06:55:09;23.00;99.90
20070;DHT22;10195;50.868;4.382;2023-07-29T06:57:35;23.10;99.90
20070;DHT22;10195;50.868;4.382;2023-07-29T07:00:01;22.90;99.90
20070;DHT22;10195;50.868;4.382;2023-07-29T07:02:26;22.80;99.90
20070;DHT22;10195;50.868;4.382;2023-07-29T07:04:52;22.60;99.90
20070;DHT22;10195;50.868;4.382;2023-07-29T07:07:17;22.60;99.90
20070;DHT22;10195;50.868;4.382;2023-07-29T07:09:43;22.30;99.90
20070;DHT22;10195;50.868;4.382;2023-07-29T07:12:09;22.10;99.90
20070;DHT22;10195;50.868;4.382;2023-07-29T07:14:34;22.10;99.90
20070;DHT22;10195;50.868;4.382;2023-07-29T07:17:00;22.20;99.90
20070;DHT22;10195;50.868;4.382;2023-07-29T07:19:26;22.00;99.90
20070;DHT22;10195;50.868;4.382;2023-07-29T07:21:51;21.60;99.90
20070;DHT22;10195;50.868;4.382;2023-07-29T07:24:17;21.50;99.90
20070;DHT22;10195;50.868;4.382;2023-07-29T07:26:43;21.30;99.90
20070;DHT22;10195;50.868;4.382;2023-07-29T07:29:08;21.20;99.90
20070;DHT22;10195;50.868;4.382;2023-07-29T07:31:34;21.20;99.90
20070;DHT22;10195;50.868;4.382;2023-07-29T07:34:00;21.10;99.90
20070;DHT22;10195;50.868;4.382;2023-07-29T07:36:27;21.10;99.90
20070;DHT22;10195;50.868;4.382;2023-07-29T07:38:53;21.00;99.90
20070;DHT22;10195;50.868;4.382;2023-07-29T07:41:19;20.90;99.90
20070;DHT22;10195;50.868;4.382;2023-07-29T07:43:44;20.70;99.90
20070;DHT22;10195;50.868;4.382;2023-07-29T07:46:10;20.80;99.90
20070;DHT22;10195;50.868;4.382;2023-07-29T07:48:35;20.90;99.90
20070;DHT22;10195;50.868;4.382;2023-07-29T07:51:10;21.20;99.90
20070;DHT22;10195;50.868;4.382;2023-07-29T07:53:36;21.60;99.90
20070;DHT22;10195;50.868;4.382;2023-07-29T07:56:02;22.00;99.90
20070;DHT22;10195;50.868;4.382;2023-07-29T07:58:27;22.00;99.90
20070;DHT22;10195;50.868;4.382;2023-07-29T08:01:07;22.30;99.90
20070;DHT22;10195;50.868;4.382;2023-07-29T08:03:33;22.70;99.90
20070;DHT22;10195;50.868;4.382;2023-07-29T08:05:59;23.20;99.90
20070;DHT22;10195;50.868;4.382;2023-07-29T08:08:26;23.50;99.90
20070;DHT22;10195;50.868;4.382;2023-07-29T08:10:56;23.70;99.90
20070;DHT22;10195;50.868;4.382;2023-07-29T08:13:23;24.30;99.90
20070;DHT22;10195;50.868;4.382;2023-07-29T08:15:51;25.10;99.90
20070;DHT22;10195;50.868;4.382;2023-07-29T08:18:17;26.20;99.90
20070;DHT22;10195;50.868;4.382;2023-07-29T08:21:12;26.70;99.90
20070;DHT22;10195;50.868;4.382;2023-07-29T08:23:38;26.30;99.90
20070;DHT22;10195;50.868;4.382;2023-07-29T08:26:05;26.30;99.90
20070;DHT22;10195;50.868;4.382;2023-07-29T08:28:36;26.60;99.90
20070;DHT22;10195;50.868;4.382;2023-07-29T08:31:02;26.40;99.90
20070;DHT22;10195;50.868;4.382;2023-07-29T08:33:28;26.30;99.90
20070;DHT22;10195;50.868;4.382;2023-07-29T08:35:54;26.00;99.90
20070;DHT22;10195;50.868;4.382;2023-07-29T08:38:21;25.20;99.90
20070;DHT22;10195;50.868;4.382;2023-07-29T08:43:29;25.40;99.90
20070;DHT22;10195;50.868;4.382;2023-07-29T08:45:57;24.80;99.90
20070;DHT22;10195;50.868;4.382;2023-07-29T08:48:45;25.30;99.90
20070;DHT22;10195;50.868;4.382;2023-07-29T08:51:11;26.10;99.90
20070;DHT22;10195;50.868;4.382;2023-07-29T08:53:38;26.50;99.90
20070;DHT22;10195;50.868;4.382;2023-07-29T08:56:04;26.20;99.90
20070;DHT22;10195;50.868;4.382;2023-07-29T08:58:31;26.40;99.90
20070;DHT22;10195;50.868;4.382;2023-07-29T09:00:57;26.50;99.90
20070;DHT22;10195;50.868;4.382;2023-07-29T09:03:22;26.70;99.90
20070;DHT22;10195;50.868;4.382;2023-07-29T09:05:48;27.10;99.90
20070;DHT22;10195;50.868;4.382;2023-07-29T09:08:14;27.80;99.90
20070;DHT22;10195;50.868;4.382;2023-07-29T09:10:40;28.00;99.90
20070;DHT22;10195;50.868;4.382;2023-07-29T09:13:06;27.60;99.90
20070;DHT22;10195;50.868;4.382;2023-07-29T09:15:34;27.40;99.90
20070;DHT22;10195;50.868;4.382;2023-07-29T09:18:11;26.70;99.90
20070;DHT22;10195;50.868;4.382;2023-07-29T09:20:37;26.50;99.90
20070;DHT22;10195;50.868;4.382;2023-07-29T09:23:03;26.60;99.90
20070;DHT22;10195;50.868;4.382;2023-07-29T09:25:32;26.60;99.90
20070;DHT22;10195;50.868;4.382;2023-07-29T09:28:02;26.80;99.90
20070;DHT22;10195;50.868;4.382;2023-07-29T09:30:32;26.10;99.90
20070;DHT22;10195;50.868;4.382;2023-07-29T09:32:58;25.10;99.90
20070;DHT22;10195;50.868;4.382;2023-07-29T09:35:27;25.10;99.90
20070;DHT22;10195;50.868;4.382;2023-07-29T09:37:53;25.50;99.90
20070;DHT22;10195;50.868;4.382;2023-07-29T09:40:19;25.70;99.90
20070;DHT22;10195;50.868;4.382;2023-07-29T09:42:53;25.30;99.90
20070;DHT22;10195;50.868;4.382;2023-07-29T09:45:26;25.40;99.90
20070;DHT22;10195;50.868;4.382;2023-07-29T09:47:57;25.20;99.90
20070;DHT22;10195;50.868;4.382;2023-07-29T09:50:24;24.90;99.90
20070;DHT22;10195;50.868;4.382;2023-07-29T09:52:51;24.70;99.90
20070;DHT22;10195;50.868;4.382;2023-07-29T09:55:18;24.70;99.90
20070;DHT22;10195;50.868;4.382;2023-07-29T09:57:44;24.60;99.90
20070;DHT22;10195;50.868;4.382;2023-07-29T10:00:11;24.50;99.90
20070;DHT22;10195;50.868;4.382;2023-07-29T10:02:42;24.40;99.90
20070;DHT22;10195;50.868;4.382;2023-07-29T10:05:09;25.20;99.90
20070;DHT22;10195;50.868;4.382;2023-07-29T10:07:37;26.10;99.90
20070;DHT22;10195;50.868;4.382;2023-07-29T10:10:04;26.30;99.90
20070;DHT22;10195;50.868;4.382;2023-07-29T10:12:34;26.70;99.90
20070;DHT22;10195;50.868;4.382;2023-07-29T10:15:05;26.90;99.90
20070;DHT22;10195;50.868;4.382;2023-07-29T10:17:35;26.50;99.90
20070;DHT22;10195;50.868;4.382;2023-07-29T10:20:02;26.60;99.90
20070;DHT22;10195;50.868;4.382;2023-07-29T10:22:32;26.60;99.90
20070;DHT22;10195;50.868;4.382;2023-07-29T10:25:21;26.40;99.90
20070;DHT22;10195;50.868;4.382;2023-07-29T10:28:04;26.40;99.90
20070;DHT22;10195;50.868;4.382;2023-07-29T10:30:30;26.40;99.90
20070;DHT22;10195;50.868;4.382;2023-07-29T10:32:58;26.20;99.90
20070;DHT22;10195;50.868;4.382;2023-07-29T10:35:24;25.80;99.90
20070;DHT22;10195;50.868;4.382;2023-07-29T10:37:51;25.60;99.90
20070;DHT22;10195;50.868;4.382;2023-07-29T10:40:18;25.00;99.90
20070;DHT22;10195;50.868;4.382;2023-07-29T10:43:02;24.60;99.90
20070;DHT22;10195;50.868;4.382;2023-07-29T10:45:38;23.40;99.90
20070;DHT22;10195;50.868;4.382;2023-07-29T10:48:10;22.50;99.90
20070;DHT22;10195;50.868;4.382;2023-07-29T10:50:36;22.20;99.90
20070;DHT22;10195;50.868;4.382;2023-07-29T10:53:01;22.30;99.90
20070;DHT22;10195;50.868;4.382;2023-07-29T10:55:35;22.50;99.90
20070;DHT22;10195;50.868;4.382;2023-07-29T10:58:08;22.70;99.90
20070;DHT22;10195;50.868;4.382;2023-07-29T11:00:35;22.80;99.90
20070;DHT22;10195;50.868;4.382;2023-07-29T11:03:03;23.00;99.90
20070;DHT22;10195;50.868;4.382;2023-07-29T11:05:48;23.20;99.90
20070;DHT22;10195;50.868;4.382;2023-07-29T11:08:30;22.80;99.90
20070;DHT22;10195;50.868;4.382;2023-07-29T11:11:06;22.60;99.90
20070;DHT22;10195;50.868;4.382;2023-07-29T11:13:34;22.40;99.90
20070;DHT22;10195;50.868;4.382;2023-07-29T11:16:00;22.30;99.90
20070;DHT22;10195;50.868;4.382;2023-07-29T11:18:31;22.20;99.90
20070;DHT22;10195;50.868;4.382;2023-07-29T11:21:00;22.00;99.90
20070;DHT22;10195;50.868;4.382;2023-07-29T11:23:33;22.20;99.90
20070;DHT22;10195;50.868;4.382;2023-07-29T11:26:00;22.20;99.90
20070;DHT22;10195;50.868;4.382;2023-07-29T11:28:27;22.30;99.90
20070;DHT22;10195;50.868;4.382;2023-07-29T11:30:54;22.50;99.90
20070;DHT22;10195;50.868;4.382;2023-07-29T11:33:22;22.70;99.90
20070;DHT22;10195;50.868;4.382;2023-07-29T11:35:49;22.90;99.90
20070;DHT22;10195;50.868;4.382;2023-07-29T11:38:17;23.10;99.90
20070;DHT22;10195;50.868;4.382;2023-07-29T11:40:43;23.30;99.90
20070;DHT22;10195;50.868;4.382;2023-07-29T11:43:08;23.40;99.90
20070;DHT22;10195;50.868;4.382;2023-07-29T11:45:34;23.60;99.90
20070;DHT22;10195;50.868;4.382;2023-07-29T11:48:03;23.90;99.90
20070;DHT22;10195;50.868;4.382;2023-07-29T11:50:29;24.20;99.90
20070;DHT22;10195;50.868;4.382;2023-07-29T11:52:54;24.50;99.90
20070;DHT22;10195;50.868;4.382;2023-07-29T11:55:21;24.90;99.90
20070;DHT22;10195;50.868;4.382;2023-07-29T11:57:51;24.80;99.90
20070;DHT22;10195;50.868;4.382;2023-07-29T12:00:17;24.80;99.90
20070;DHT22;10195;50.868;4.382;2023-07-29T12:02:44;24.80;99.90
20070;DHT22;10195;50.868;4.382;2023-07-29T12:05:11;25.00;99.90
20070;DHT22;10195;50.868;4.382;2023-07-29T12:07:39;25.00;99.90
20070;DHT22;10195;50.868;4.382;2023-07-29T12:10:05;24.80;99.90
20070;DHT22;10195;50.868;4.382;2023-07-29T12:12:31;24.80;99.90
20070;DHT22;10195;50.868;4.382;2023-07-29T12:14:57;24.50;99.90
20070;DHT22;10195;50.868;4.382;2023-07-29T12:17:23;23.80;99.90
20070;DHT22;10195;50.868;4.382;2023-07-29T12:19:49;23.20;99.90
20070;DHT22;10195;50.868;4.382;2023-07-29T12:22:19;22.90;99.90
20070;DHT22;10195;50.868;4.382;2023-07-29T12:24:45;22.70;99.90
20070;DHT22;10195;50.868;4.382;2023-07-29T12:27:12;23.20;99.90
20070;DHT22;10195;50.868;4.382;2023-07-29T12:29:42;23.70;99.90
20070;DHT22;10195;50.868;4.382;2023-07-29T12:32:08;23.60;99.90
20070;DHT22;10195;50.868;4.382;2023-07-29T12:34:36;23.60;99.90
20070;DHT22;10195;50.868;4.382;2023-07-29T12:37:03;23.80;99.90
20070;DHT22;10195;50.868;4.382;2023-07-29T12:39:32;23.90;99.90
20070;DHT22;10195;50.868;4.382;2023-07-29T12:42:00;23.90;99.90
20070;DHT22;10195;50.868;4.382;2023-07-29T12:44:31;24.20;99.90
20070;DHT22;10195;50.868;4.382;2023-07-29T12:46:56;24.50;99.90
20070;DHT22;10195;50.868;4.382;2023-07-29T12:49:22;24.90;99.90
20070;DHT22;10195;50.868;4.382;2023-07-29T12:51:48;25.10;99.90
20070;DHT22;10195;50.868;4.382;2023-07-29T12:54:14;25.00;99.90
20070;DHT22;10195;50.868;4.382;2023-07-29T12:56:39;25.00;99.90
20070;DHT22;10195;50.868;4.382;2023-07-29T12:59:05;25.00;99.90
20070;DHT22;10195;50.868;4.382;2023-07-29T13:01:31;24.90;99.90
20070;DHT22;10195;50.868;4.382;2023-07-29T13:03:57;24.90;99.90
20070;DHT22;10195;50.868;4.382;2023-07-29T13:06:22;24.70;99.90
20070;DHT22;10195;50.868;4.382;2023-07-29T13:08:48;24.50;99.90
20070;DHT22;10195;50.868;4.382;2023-07-29T13:11:15;24.50;99.90
20070;DHT22;10195;50.868;4.382;2023-07-29T13:13:41;24.80;99.90
20070;DHT22;10195;50.868;4.382;2023-07-29T13:16:07;24.60;99.90
20070;DHT22;10195;50.868;4.382;2023-07-29T13:18:33;24.40;99.90
20070;DHT22;10195;50.868;4.382;2023-07-29T13:20:59;24.30;99.90
20070;DHT22;10195;50.868;4.382;2023-07-29T13:23:26;24.00;99.90
20070;DHT22;10195;50.868;4.382;2023-07-29T13:25:52;23.90;99.90
20070;DHT22;10195;50.868;4.382;2023-07-29T13:28:17;24.00;99.90
20070;DHT22;10195;50.868;4.382;2023-07-29T13:30:44;24.00;99.90
20070;DHT22;10195;50.868;4.382;2023-07-29T13:33:10;23.80;99.90
20070;DHT22;10195;50.868;4.382;2023-07-29T13:35:35;23.60;99.90
20070;DHT22;10195;50.868;4.382;2023-07-29T13:38:02;23.70;99.90
20070;DHT22;10195;50.868;4.382;2023-07-29T13:40:27;24.10;99.90
20070;DHT22;10195;50.868;4.382;2023-07-29T13:42:54;24.30;99.90
20070;DHT22;10195;50.868;4.382;2023-07-29T13:45:20;24.30;99.90
20070;DHT22;10195;50.868;4.382;2023-07-29T13:47:46;24.40;99.90
20070;DHT22;10195;50.868;4.382;2023-07-29T13:50:12;24.50;99.90
20070;DHT22;10195;50.868;4.382;2023-07-29T13:52:37;24.50;99.90
20070;DHT22;10195;50.868;4.382;2023-07-29T13:55:04;24.60;99.90
20070;DHT22;10195;50.868;4.382;2023-07-29T13:57:30;24.60;99.90
20070;DHT22;10195;50.868;4.382;2023-07-29T13:59:56;24.80;99.90
20070;DHT22;10195;50.868;4.382;2023-07-29T14:02:21;24.90;99.90
20070;DHT22;10195;50.868;4.382;2023-07-29T14:04:47;25.00;99.90
20070;DHT22;10195;50.868;4.382;2023-07-29T14:07:13;24.80;99.90
20070;DHT22;10195;50.868;4.382;2023-07-29T14:09:38;24.60;99.90
20070;DHT22;10195;50.868;4.382;2023-07-29T14:12:04;24.40;99.90
20070;DHT22;10195;50.868;4.382;2023-07-29T14:14:31;24.50;99.90
20070;DHT22;10195;50.868;4.382;2023-07-29T14:16:57;24.80;99.90
20070;DHT22;10195;50.868;4.382;2023-07-29T14:19:23;24.80;99.90
20070;DHT22;10195;50.868;4.382;2023-07-29T14:21:49;24.80;99.90
20070;DHT22;10195;50.868;4.382;2023-07-29T14:24:14;24.90;99.90
20070;DHT22;10195;50.868;4.382;2023-07-29T14:26:43;24.60;99.90
20070;DHT22;10195;50.868;4.382;2023-07-29T14:29:08;24.80;99.90
20070;DHT22;10195;50.868;4.382;2023-07-29T14:31:34;24.90;99.90
20070;DHT22;10195;50.868;4.382;2023-07-29T14:34:00;24.60;99.90
20070;DHT22;10195;50.868;4.382;2023-07-29T14:36:25;24.70;99.90
20070;DHT22;10195;50.868;4.382;2023-07-29T14:38:51;24.80;99.90
20070;DHT22;10195;50.868;4.382;2023-07-29T14:41:17;24.70;99.90
20070;DHT22;10195;50.868;4.382;2023-07-29T14:43:43;24.80;99.90
20070;DHT22;10195;50.868;4.382;2023-07-29T14:46:08;24.70;99.90
20070;DHT22;10195;50.868;4.382;2023-07-29T14:48:34;24.60;99.90
20070;DHT22;10195;50.868;4.382;2023-07-29T14:51:00;24.80;99.90
20070;DHT22;10195;50.868;4.382;2023-07-29T14:53:25;25.10;99.90
20070;DHT22;10195;50.868;4.382;2023-07-29T14:55:51;25.10;99.90
20070;DHT22;10195;50.868;4.382;2023-07-29T14:58:17;24.80;99.90
20070;DHT22;10195;50.868;4.382;2023-07-29T15:00:42;24.90;99.90
20070;DHT22;10195;50.868;4.382;2023-07-29T15:03:08;25.20;99.90
20070;DHT22;10195;50.868;4.382;2023-07-29T15:05:34;25.40;99.90
20070;DHT22;10195;50.868;4.382;2023-07-29T15:07:59;25.30;99.90
20070;DHT22;10195;50.868;4.382;2023-07-29T15:10:25;25.20;99.90
20070;DHT22;10195;50.868;4.382;2023-07-29T15:12:51;24.90;99.90
20070;DHT22;10195;50.868;4.382;2023-07-29T15:15:17;24.90;99.90
20070;DHT22;10195;50.868;4.382;2023-07-29T15:17:43;24.70;99.90
20070;DHT22;10195;50.868;4.382;2023-07-29T15:20:09;25.00;99.90
20070;DHT22;10195;50.868;4.382;2023-07-29T15:22:34;24.90;99.90
20070;DHT22;10195;50.868;4.382;2023-07-29T15:25:00;25.00;99.90
20070;DHT22;10195;50.868;4.382;2023-07-29T15:27:27;24.80;99.90
20070;DHT22;10195;50.868;4.382;2023-07-29T15:29:53;24.90;99.90
20070;DHT22;10195;50.868;4.382;2023-07-29T15:32:19;25.10;99.90
20070;DHT22;10195;50.868;4.382;2023-07-29T15:34:45;25.20;99.90